SAM101 KNKX-KADW
Flight info
| Callsign | SAM101 |
|---|---|
| Flight time | N/A |
| Altitude | 45000 |
| Route | LAKEE3 ADUDE GIREY BUKEE CIM Q176 DOSOA STL BA CLNTN LUISE FRDMM6 |
| Aircraft | B742/H-SDFHIRWXY/L |
Departure
| Time | N/A |
|---|---|
| Airport | Miramar Marine Corps Air Station - Mitscher Field (KNKX) |
Arrival
| Time | 2026-05-03 22:31 |
|---|---|
| Airport | Joint Base Andrews (KADW) |
| Time | Latitude | Longitude | Altitude | Speed | Heading |
|---|---|---|---|---|---|
| 2026-05-03 20:15 | 37.32366 | -99.68654 | 44926 ft | 535 kts | 70° |
| 2026-05-03 20:15 | 37.34273 | -99.59624 | 44916 ft | 535 kts | 70° |
| 2026-05-03 20:16 | 37.36173 | -99.50588 | 44918 ft | 535 kts | 70° |
| 2026-05-03 20:16 | 37.38076 | -99.41502 | 44918 ft | 534 kts | 70° |
| 2026-05-03 20:17 | 37.39945 | -99.32518 | 44918 ft | 534 kts | 71° |
| 2026-05-03 20:17 | 37.41783 | -99.23425 | 44926 ft | 533 kts | 71° |
| 2026-05-03 20:18 | 37.43627 | -99.14378 | 44920 ft | 533 kts | 71° |
| 2026-05-03 20:18 | 37.45476 | -99.05379 | 44912 ft | 532 kts | 71° |
| 2026-05-03 20:19 | 37.47325 | -98.96370 | 44915 ft | 532 kts | 71° |
| 2026-05-03 20:19 | 37.49169 | -98.87348 | 44919 ft | 533 kts | 71° |
| 2026-05-03 20:20 | 37.51017 | -98.78263 | 44919 ft | 533 kts | 71° |
| 2026-05-03 20:20 | 37.52841 | -98.69259 | 44921 ft | 533 kts | 71° |
| 2026-05-03 20:21 | 37.54676 | -98.60157 | 44917 ft | 533 kts | 71° |
| 2026-05-03 20:21 | 37.56488 | -98.51134 | 44919 ft | 533 kts | 71° |
| 2026-05-03 20:22 | 37.58305 | -98.42046 | 44918 ft | 533 kts | 71° |
| 2026-05-03 20:22 | 37.60113 | -98.32953 | 44916 ft | 533 kts | 72° |
| 2026-05-03 20:23 | 37.61853 | -98.23923 | 44921 ft | 532 kts | 72° |
| 2026-05-03 20:23 | 37.63612 | -98.14863 | 44917 ft | 532 kts | 72° |
| 2026-05-03 20:24 | 37.65396 | -98.05759 | 44909 ft | 531 kts | 72° |
| 2026-05-03 20:24 | 37.67165 | -97.96719 | 44904 ft | 531 kts | 72° |
| 2026-05-03 20:25 | 37.68929 | -97.87667 | 44903 ft | 531 kts | 72° |
| 2026-05-03 20:25 | 37.70687 | -97.78603 | 44905 ft | 530 kts | 72° |
| 2026-05-03 20:26 | 37.72435 | -97.69549 | 44911 ft | 530 kts | 72° |
| 2026-05-03 20:26 | 37.74170 | -97.60525 | 44916 ft | 531 kts | 72° |
| 2026-05-03 20:27 | 37.75875 | -97.51461 | 44922 ft | 531 kts | 72° |
| 2026-05-03 20:27 | 37.77549 | -97.42344 | 44920 ft | 532 kts | 72° |
| 2026-05-03 20:28 | 37.79210 | -97.33264 | 44918 ft | 532 kts | 73° |
| 2026-05-03 20:28 | 37.80824 | -97.24154 | 44924 ft | 532 kts | 73° |
| 2026-05-03 20:29 | 37.82460 | -97.14988 | 44928 ft | 532 kts | 73° |
| 2026-05-03 20:29 | 37.84105 | -97.05866 | 44925 ft | 532 kts | 73° |
| 2026-05-03 20:30 | 37.85751 | -96.96738 | 44911 ft | 532 kts | 73° |
| 2026-05-03 20:30 | 37.87384 | -96.87633 | 44912 ft | 532 kts | 73° |
| 2026-05-03 20:31 | 37.89017 | -96.78481 | 44911 ft | 532 kts | 73° |
| 2026-05-03 20:31 | 37.90646 | -96.69306 | 44916 ft | 532 kts | 73° |
| 2026-05-03 20:32 | 37.92259 | -96.60176 | 44918 ft | 532 kts | 73° |
| 2026-05-03 20:32 | 37.93869 | -96.51022 | 44913 ft | 533 kts | 73° |
| 2026-05-03 20:33 | 37.95477 | -96.41836 | 44928 ft | 533 kts | 73° |
| 2026-05-03 20:33 | 37.97070 | -96.32666 | 44924 ft | 533 kts | 74° |
| 2026-05-03 20:34 | 37.98614 | -96.23470 | 44925 ft | 532 kts | 74° |
| 2026-05-03 20:34 | 38.00177 | -96.14238 | 44925 ft | 532 kts | 73° |
| 2026-05-03 20:35 | 38.01747 | -96.05062 | 44925 ft | 532 kts | 73° |
| 2026-05-03 20:35 | 38.03309 | -95.95922 | 44923 ft | 532 kts | 73° |
| 2026-05-03 20:36 | 38.04870 | -95.86746 | 44923 ft | 533 kts | 73° |
| 2026-05-03 20:36 | 38.06427 | -95.77529 | 44929 ft | 533 kts | 73° |
| 2026-05-03 20:37 | 38.07978 | -95.68310 | 44924 ft | 533 kts | 74° |
| 2026-05-03 20:37 | 38.09513 | -95.59132 | 44927 ft | 533 kts | 73° |
| 2026-05-03 20:38 | 38.11052 | -95.49879 | 44925 ft | 533 kts | 73° |
| 2026-05-03 20:38 | 38.12571 | -95.40685 | 44927 ft | 533 kts | 74° |
| 2026-05-03 20:39 | 38.14085 | -95.31437 | 44926 ft | 534 kts | 75° |
| 2026-05-03 20:39 | 38.15546 | -95.22209 | 44920 ft | 533 kts | 75° |
| 2026-05-03 20:40 | 38.17021 | -95.13013 | 44930 ft | 533 kts | 75° |
| 2026-05-03 20:40 | 38.18570 | -95.03786 | 44930 ft | 532 kts | 74° |
| 2026-05-03 20:41 | 38.20141 | -94.94586 | 44931 ft | 532 kts | 74° |
| 2026-05-03 20:41 | 38.21703 | -94.85357 | 44935 ft | 533 kts | 74° |
| 2026-05-03 20:42 | 38.23248 | -94.76163 | 44928 ft | 533 kts | 74° |
| 2026-05-03 20:42 | 38.24790 | -94.66921 | 44909 ft | 533 kts | 74° |
| 2026-05-03 20:43 | 38.26315 | -94.57735 | 44913 ft | 534 kts | 74° |
| 2026-05-03 20:43 | 38.27847 | -94.48464 | 44913 ft | 534 kts | 74° |
| 2026-05-03 20:44 | 38.29371 | -94.39188 | 44912 ft | 534 kts | 74° |
| 2026-05-03 20:44 | 38.30862 | -94.29977 | 44913 ft | 534 kts | 75° |
| 2026-05-03 20:45 | 38.32316 | -94.20726 | 44911 ft | 533 kts | 75° |
| 2026-05-03 20:45 | 38.33799 | -94.11436 | 44911 ft | 533 kts | 75° |
| 2026-05-03 20:46 | 38.35287 | -94.02181 | 44920 ft | 533 kts | 75° |
| 2026-05-03 20:46 | 38.36768 | -93.92937 | 44928 ft | 533 kts | 75° |
| 2026-05-03 20:47 | 38.38248 | -93.83645 | 44931 ft | 533 kts | 75° |
| 2026-05-03 20:47 | 38.39707 | -93.74440 | 44930 ft | 533 kts | 75° |
| 2026-05-03 20:48 | 38.41172 | -93.65140 | 44932 ft | 533 kts | 75° |
| 2026-05-03 20:48 | 38.42631 | -93.55827 | 44930 ft | 533 kts | 75° |
| 2026-05-03 20:49 | 38.44073 | -93.46577 | 44938 ft | 533 kts | 75° |
| 2026-05-03 20:49 | 38.45516 | -93.37269 | 44941 ft | 533 kts | 75° |
| 2026-05-03 20:50 | 38.46921 | -93.27970 | 44953 ft | 534 kts | 76° |
| 2026-05-03 20:50 | 38.48299 | -93.18687 | 44946 ft | 533 kts | 75° |
| 2026-05-03 20:51 | 38.49701 | -93.09392 | 44939 ft | 533 kts | 75° |
| 2026-05-03 20:51 | 38.51114 | -93.00072 | 44936 ft | 533 kts | 75° |
| 2026-05-03 20:52 | 38.52515 | -92.90787 | 44925 ft | 533 kts | 75° |
| 2026-05-03 20:52 | 38.53908 | -92.81497 | 44927 ft | 533 kts | 75° |
| 2026-05-03 20:53 | 38.55294 | -92.72194 | 44923 ft | 533 kts | 76° |
| 2026-05-03 20:53 | 38.56676 | -92.62875 | 44911 ft | 533 kts | 76° |
| 2026-05-03 20:54 | 38.58052 | -92.53535 | 44909 ft | 533 kts | 76° |
| 2026-05-03 20:54 | 38.60092 | -92.39584 | 44907 ft | 534 kts | 76° |
| 2026-05-03 20:55 | 38.61436 | -92.30238 | 44915 ft | 534 kts | 77° |
| 2026-05-03 20:55 | 38.62739 | -92.20859 | 44908 ft | 534 kts | 77° |
| 2026-05-03 20:56 | 38.64058 | -92.11523 | 44906 ft | 534 kts | 77° |
| 2026-05-03 20:56 | 38.65387 | -92.02192 | 44921 ft | 533 kts | 77° |
| 2026-05-03 20:57 | 38.66711 | -91.92862 | 44916 ft | 533 kts | 76° |
| 2026-05-03 20:57 | 38.68029 | -91.83522 | 44916 ft | 533 kts | 76° |
| 2026-05-03 20:58 | 38.69346 | -91.74132 | 44899 ft | 533 kts | 77° |
| 2026-05-03 20:58 | 38.70643 | -91.64813 | 44900 ft | 534 kts | 76° |
| 2026-05-03 20:59 | 38.71943 | -91.55428 | 44900 ft | 534 kts | 76° |
| 2026-05-03 20:59 | 38.73227 | -91.46091 | 44909 ft | 535 kts | 76° |
| 2026-05-03 21:00 | 38.74301 | -91.38241 | 44896 ft | 534 kts | 77° |
| 2026-05-03 21:00 | 38.75755 | -91.27320 | 44889 ft | 534 kts | 78° |
| 2026-05-03 21:01 | 38.76980 | -91.17926 | 44891 ft | 533 kts | 77° |
| 2026-05-03 21:01 | 38.78229 | -91.08530 | 44886 ft | 533 kts | 77° |
| 2026-05-03 21:02 | 38.79476 | -90.99178 | 44895 ft | 533 kts | 77° |
| 2026-05-03 21:02 | 38.80726 | -90.89753 | 44892 ft | 534 kts | 77° |
| 2026-05-03 21:03 | 38.81964 | -90.80362 | 44895 ft | 534 kts | 77° |
| 2026-05-03 21:03 | 38.83193 | -90.70964 | 44910 ft | 535 kts | 77° |
| 2026-05-03 21:04 | 38.84415 | -90.61565 | 44929 ft | 535 kts | 77° |
| 2026-05-03 21:04 | 38.85630 | -90.52149 | 44921 ft | 535 kts | 78° |
| 2026-05-03 21:05 | 38.86904 | -90.42703 | 44924 ft | 535 kts | 78° |
| 2026-05-03 21:05 | 38.87995 | -90.33218 | 44906 ft | 536 kts | 80° |
| 2026-05-03 21:06 | 38.89016 | -90.23756 | 44932 ft | 535 kts | 80° |
| 2026-05-03 21:06 | 38.90078 | -90.14353 | 44927 ft | 535 kts | 79° |
| 2026-05-03 21:07 | 38.91177 | -90.04900 | 44928 ft | 535 kts | 79° |
| 2026-05-03 21:07 | 38.92282 | -89.95410 | 44937 ft | 534 kts | 79° |
| 2026-05-03 21:08 | 38.93375 | -89.85941 | 44931 ft | 535 kts | 79° |
| 2026-05-03 21:08 | 38.94456 | -89.76502 | 44923 ft | 535 kts | 79° |
| 2026-05-03 21:09 | 38.95528 | -89.67063 | 44911 ft | 536 kts | 79° |
| 2026-05-03 21:09 | 38.96603 | -89.57529 | 44908 ft | 536 kts | 79° |
| 2026-05-03 21:10 | 38.97660 | -89.48076 | 44905 ft | 536 kts | 79° |
| 2026-05-03 21:10 | 38.98721 | -89.38519 | 44907 ft | 537 kts | 79° |
| 2026-05-03 21:11 | 38.99753 | -89.28970 | 44906 ft | 537 kts | 81° |
| 2026-05-03 21:11 | 39.00747 | -89.19442 | 44908 ft | 538 kts | 81° |
| 2026-05-03 21:12 | 39.01763 | -89.09915 | 44912 ft | 538 kts | 81° |
| 2026-05-03 21:12 | 39.02785 | -89.00401 | 44920 ft | 537 kts | 80° |
| 2026-05-03 21:13 | 39.03805 | -88.90862 | 44929 ft | 537 kts | 80° |
| 2026-05-03 21:13 | 39.04816 | -88.81336 | 44929 ft | 537 kts | 80° |
| 2026-05-03 21:14 | 39.05818 | -88.71807 | 44936 ft | 537 kts | 81° |
| 2026-05-03 21:14 | 39.06811 | -88.62288 | 44933 ft | 537 kts | 81° |
| 2026-05-03 21:15 | 39.07802 | -88.52715 | 44931 ft | 538 kts | 80° |
| 2026-05-03 21:15 | 39.08786 | -88.43127 | 44929 ft | 538 kts | 80° |
| 2026-05-03 21:16 | 39.09754 | -88.33604 | 44931 ft | 538 kts | 81° |
| 2026-05-03 21:16 | 39.10675 | -88.23971 | 44938 ft | 538 kts | 81° |
| 2026-05-03 21:17 | 39.11597 | -88.14401 | 44949 ft | 538 kts | 81° |
| 2026-05-03 21:17 | 39.12541 | -88.04835 | 44945 ft | 538 kts | 81° |
| 2026-05-03 21:18 | 39.13486 | -87.95245 | 44948 ft | 538 kts | 81° |
| 2026-05-03 21:18 | 39.14420 | -87.85691 | 44947 ft | 539 kts | 81° |
| 2026-05-03 21:19 | 39.15344 | -87.76135 | 44952 ft | 538 kts | 81° |
| 2026-05-03 21:19 | 39.16264 | -87.66534 | 44967 ft | 538 kts | 81° |
| 2026-05-03 21:20 | 39.17176 | -87.56943 | 44953 ft | 538 kts | 81° |
| 2026-05-03 21:20 | 39.18076 | -87.47388 | 44961 ft | 537 kts | 81° |
| 2026-05-03 21:21 | 39.18976 | -87.37743 | 44960 ft | 537 kts | 81° |
| 2026-05-03 21:21 | 39.19832 | -87.28213 | 44954 ft | 537 kts | 82° |
| 2026-05-03 21:22 | 39.20663 | -87.18637 | 44981 ft | 536 kts | 82° |
| 2026-05-03 21:22 | 39.21518 | -87.09051 | 44978 ft | 536 kts | 82° |
| 2026-05-03 21:23 | 39.22373 | -86.99530 | 44974 ft | 535 kts | 82° |
| 2026-05-03 21:23 | 39.23228 | -86.89956 | 44984 ft | 535 kts | 82° |
| 2026-05-03 21:24 | 39.24073 | -86.80398 | 44991 ft | 535 kts | 82° |
| 2026-05-03 21:24 | 39.24906 | -86.70884 | 44999 ft | 535 kts | 82° |
| 2026-05-03 21:25 | 39.25732 | -86.61350 | 44998 ft | 536 kts | 82° |
| 2026-05-03 21:25 | 39.26554 | -86.51777 | 45004 ft | 537 kts | 82° |
| 2026-05-03 21:26 | 39.27371 | -86.42158 | 45012 ft | 537 kts | 82° |
| 2026-05-03 21:26 | 39.28178 | -86.32528 | 44999 ft | 537 kts | 83° |
| 2026-05-03 21:27 | 39.28927 | -86.22897 | 44996 ft | 538 kts | 83° |
| 2026-05-03 21:27 | 39.29692 | -86.13265 | 44997 ft | 538 kts | 83° |
| 2026-05-03 21:28 | 39.30473 | -86.03635 | 45005 ft | 538 kts | 83° |
| 2026-05-03 21:28 | 39.31258 | -85.93932 | 44995 ft | 539 kts | 83° |
| 2026-05-03 21:29 | 39.32030 | -85.84290 | 45017 ft | 539 kts | 83° |
| 2026-05-03 21:29 | 39.32833 | -85.74640 | 45002 ft | 539 kts | 84° |
| 2026-05-03 21:30 | 39.33405 | -85.64943 | 45005 ft | 539 kts | 84° |
| 2026-05-03 21:30 | 39.33980 | -85.55290 | 45001 ft | 539 kts | 84° |
| 2026-05-03 21:31 | 39.34589 | -85.45593 | 45012 ft | 539 kts | 84° |
| 2026-05-03 21:31 | 39.35199 | -85.35957 | 45027 ft | 539 kts | 84° |
| 2026-05-03 21:32 | 39.35768 | -85.26249 | 45016 ft | 539 kts | 85° |
| 2026-05-03 21:32 | 39.36323 | -85.16589 | 45036 ft | 538 kts | 85° |
| 2026-05-03 21:33 | 39.36902 | -85.06902 | 45014 ft | 539 kts | 85° |
| 2026-05-03 21:33 | 39.37483 | -84.97234 | 45016 ft | 539 kts | 85° |
| 2026-05-03 21:34 | 39.38055 | -84.87572 | 45025 ft | 539 kts | 85° |
| 2026-05-03 21:34 | 39.38621 | -84.77891 | 45027 ft | 539 kts | 85° |
| 2026-05-03 21:35 | 39.39178 | -84.68198 | 45031 ft | 540 kts | 85° |
| 2026-05-03 21:35 | 39.39729 | -84.58478 | 45036 ft | 540 kts | 85° |
| 2026-05-03 21:36 | 39.40268 | -84.48831 | 45037 ft | 541 kts | 85° |
| 2026-05-03 21:36 | 39.40805 | -84.39075 | 45049 ft | 541 kts | 85° |
| 2026-05-03 21:37 | 39.41315 | -84.29320 | 45037 ft | 542 kts | 86° |
| 2026-05-03 21:37 | 39.41783 | -84.19578 | 45029 ft | 543 kts | 86° |
| 2026-05-03 21:38 | 39.42276 | -84.09828 | 45031 ft | 543 kts | 86° |
| 2026-05-03 21:38 | 39.42780 | -84.00047 | 45028 ft | 543 kts | 85° |
| 2026-05-03 21:39 | 39.43276 | -83.90319 | 45031 ft | 544 kts | 85° |
| 2026-05-03 21:39 | 39.43766 | -83.80527 | 45022 ft | 544 kts | 86° |
| 2026-05-03 21:40 | 39.44248 | -83.70715 | 45040 ft | 544 kts | 85° |
| 2026-05-03 21:40 | 39.44721 | -83.60919 | 45013 ft | 545 kts | 85° |
| 2026-05-03 21:41 | 39.45187 | -83.51108 | 45019 ft | 545 kts | 86° |
| 2026-05-03 21:41 | 39.45642 | -83.41335 | 45014 ft | 545 kts | 86° |
| 2026-05-03 21:42 | 39.46085 | -83.31486 | 45008 ft | 544 kts | 87° |
| 2026-05-03 21:42 | 39.46471 | -83.21690 | 45021 ft | 544 kts | 87° |
| 2026-05-03 21:43 | 39.46874 | -83.11956 | 45028 ft | 543 kts | 86° |
| 2026-05-03 21:43 | 39.47294 | -83.02149 | 45041 ft | 543 kts | 86° |
| 2026-05-03 21:44 | 39.47711 | -82.92344 | 45041 ft | 543 kts | 86° |
| 2026-05-03 21:44 | 39.48117 | -82.82579 | 45034 ft | 544 kts | 86° |
| 2026-05-03 21:45 | 39.48516 | -82.72782 | 45031 ft | 544 kts | 86° |
| 2026-05-03 21:45 | 39.48908 | -82.62940 | 45030 ft | 545 kts | 86° |
| 2026-05-03 21:46 | 39.49291 | -82.53114 | 45029 ft | 545 kts | 86° |
| 2026-05-03 21:46 | 39.49665 | -82.43321 | 45029 ft | 546 kts | 86° |
| 2026-05-03 21:47 | 39.50030 | -82.33483 | 45024 ft | 546 kts | 87° |
| 2026-05-03 21:47 | 39.50339 | -82.23623 | 45024 ft | 546 kts | 88° |
| 2026-05-03 21:48 | 39.50657 | -82.13789 | 45026 ft | 546 kts | 87° |
| 2026-05-03 21:48 | 39.50994 | -82.03886 | 45017 ft | 547 kts | 87° |
| 2026-05-03 21:49 | 39.51329 | -81.94067 | 45021 ft | 547 kts | 87° |
| 2026-05-03 21:49 | 39.51658 | -81.84157 | 45011 ft | 547 kts | 87° |
| 2026-05-03 21:50 | 39.51974 | -81.74331 | 45022 ft | 547 kts | 87° |
| 2026-05-03 21:50 | 39.52285 | -81.64441 | 45016 ft | 547 kts | 87° |
| 2026-05-03 21:51 | 39.52586 | -81.54578 | 45017 ft | 547 kts | 87° |
| 2026-05-03 21:51 | 39.52878 | -81.44718 | 45020 ft | 548 kts | 87° |
| 2026-05-03 21:52 | 39.53163 | -81.34833 | 45017 ft | 548 kts | 88° |
| 2026-05-03 21:52 | 39.53396 | -81.24918 | 45032 ft | 547 kts | 89° |
| 2026-05-03 21:53 | 39.53778 | -81.15121 | 45014 ft | 546 kts | 83° |
| 2026-05-03 21:53 | 39.54701 | -81.05299 | 45013 ft | 547 kts | 83° |
| 2026-05-03 21:54 | 39.55145 | -81.00388 | 44644 ft | 555 kts | 83° |
| 2026-05-03 21:54 | 39.55564 | -80.95353 | 44109 ft | 563 kts | 84° |
| 2026-05-03 21:54 | 39.55959 | -80.90283 | 43601 ft | 566 kts | 84° |
| 2026-05-03 21:54 | 39.56336 | -80.85234 | 43111 ft | 563 kts | 84° |
| 2026-05-03 21:55 | 39.56707 | -80.80157 | 42608 ft | 557 kts | 84° |
| 2026-05-03 21:55 | 39.57045 | -80.75163 | 42078 ft | 550 kts | 87° |
| 2026-05-03 21:55 | 39.56861 | -80.70252 | 41692 ft | 540 kts | 99° |
| 2026-05-03 21:55 | 39.56043 | -80.65576 | 41202 ft | 534 kts | 108° |
| 2026-05-03 21:56 | 39.54846 | -80.61078 | 40644 ft | 519 kts | 113° |
| 2026-05-03 21:56 | 39.53516 | -80.56825 | 40154 ft | 504 kts | 115° |
| 2026-05-03 21:56 | 39.52144 | -80.52663 | 39613 ft | 491 kts | 115° |
| 2026-05-03 21:56 | 39.50813 | -80.48655 | 38995 ft | 486 kts | 115° |
| 2026-05-03 21:57 | 39.49484 | -80.44624 | 38165 ft | 494 kts | 115° |
| 2026-05-03 21:57 | 39.48126 | -80.40447 | 37515 ft | 498 kts | 114° |
| 2026-05-03 21:57 | 39.46801 | -80.36320 | 37042 ft | 496 kts | 114° |
| 2026-05-03 21:57 | 39.45479 | -80.32204 | 36519 ft | 496 kts | 115° |
| 2026-05-03 21:58 | 39.44125 | -80.28055 | 35901 ft | 500 kts | 115° |
| 2026-05-03 21:58 | 39.42772 | -80.23905 | 35348 ft | 502 kts | 115° |
| 2026-05-03 21:58 | 39.41410 | -80.19707 | 34654 ft | 509 kts | 114° |
| 2026-05-03 21:58 | 39.40048 | -80.15490 | 34023 ft | 510 kts | 114° |
| 2026-05-03 21:59 | 39.38683 | -80.11252 | 33480 ft | 507 kts | 114° |
| 2026-05-03 21:59 | 39.37322 | -80.07020 | 32817 ft | 508 kts | 114° |
| 2026-05-03 21:59 | 39.35973 | -80.02837 | 32141 ft | 508 kts | 114° |
| 2026-05-03 21:59 | 39.34618 | -79.98646 | 31734 ft | 500 kts | 114° |
| 2026-05-03 22:00 | 39.33281 | -79.94515 | 31358 ft | 493 kts | 114° |
| 2026-05-03 22:00 | 39.31955 | -79.90421 | 31131 ft | 491 kts | 114° |
| 2026-05-03 22:00 | 39.29477 | -79.82151 | 31033 ft | 501 kts | 103° |
| 2026-05-03 22:01 | 39.28476 | -79.73372 | 30800 ft | 500 kts | 93° |
| 2026-05-03 22:01 | 39.28187 | -79.68913 | 29920 ft | 504 kts | 92° |
| 2026-05-03 22:01 | 39.27898 | -79.64352 | 29077 ft | 505 kts | 92° |
| 2026-05-03 22:02 | 39.27590 | -79.59899 | 28334 ft | 504 kts | 92° |
| 2026-05-03 22:02 | 39.27251 | -79.55372 | 27814 ft | 497 kts | 93° |
| 2026-05-03 22:02 | 39.26906 | -79.50984 | 27407 ft | 489 kts | 93° |
| 2026-05-03 22:02 | 39.26561 | -79.46689 | 26909 ft | 483 kts | 93° |
| 2026-05-03 22:03 | 39.26211 | -79.42396 | 26334 ft | 479 kts | 93° |
| 2026-05-03 22:03 | 39.25861 | -79.38110 | 25770 ft | 475 kts | 93° |
| 2026-05-03 22:03 | 39.25515 | -79.33888 | 25197 ft | 471 kts | 94° |
| 2026-05-03 22:03 | 39.25153 | -79.29718 | 24775 ft | 469 kts | 94° |
| 2026-05-03 22:04 | 39.24786 | -79.25543 | 24373 ft | 463 kts | 94° |
| 2026-05-03 22:04 | 39.24431 | -79.21462 | 24023 ft | 455 kts | 94° |
| 2026-05-03 22:04 | 39.24088 | -79.17444 | 23469 ft | 452 kts | 93° |
| 2026-05-03 22:04 | 39.23749 | -79.13417 | 22964 ft | 446 kts | 94° |
| 2026-05-03 22:05 | 39.23417 | -79.09489 | 22557 ft | 438 kts | 94° |
| 2026-05-03 22:05 | 39.23089 | -79.05614 | 22206 ft | 438 kts | 94° |
| 2026-05-03 22:05 | 39.22757 | -79.01726 | 22055 ft | 432 kts | 94° |
| 2026-05-03 22:05 | 39.22427 | -78.97889 | 22036 ft | 435 kts | 94° |
| 2026-05-03 22:06 | 39.22086 | -78.94028 | 21992 ft | 433 kts | 94° |
| 2026-05-03 22:06 | 39.21719 | -78.90179 | 21538 ft | 428 kts | 95° |
| 2026-05-03 22:06 | 39.21352 | -78.86395 | 21029 ft | 429 kts | 95° |
| 2026-05-03 22:06 | 39.20981 | -78.82577 | 20645 ft | 427 kts | 95° |
| 2026-05-03 22:07 | 39.20614 | -78.78802 | 20276 ft | 426 kts | 95° |
| 2026-05-03 22:07 | 39.20252 | -78.75073 | 20066 ft | 419 kts | 95° |
| 2026-05-03 22:07 | 39.19891 | -78.71379 | 19964 ft | 413 kts | 95° |
| 2026-05-03 22:07 | 39.19530 | -78.67675 | 19852 ft | 417 kts | 95° |
| 2026-05-03 22:08 | 39.19170 | -78.63998 | 19364 ft | 414 kts | 95° |
| 2026-05-03 22:08 | 39.18812 | -78.60345 | 18807 ft | 411 kts | 96° |
| 2026-05-03 22:08 | 39.18453 | -78.56695 | 18305 ft | 407 kts | 96° |
| 2026-05-03 22:08 | 39.18097 | -78.53110 | 17798 ft | 403 kts | 96° |
| 2026-05-03 22:09 | 39.17742 | -78.49538 | 17349 ft | 398 kts | 96° |
| 2026-05-03 22:09 | 39.17393 | -78.46046 | 16846 ft | 395 kts | 96° |
| 2026-05-03 22:09 | 39.17047 | -78.42586 | 16370 ft | 390 kts | 95° |
| 2026-05-03 22:10 | 39.16248 | -78.35723 | 15537 ft | 388 kts | 103° |
| 2026-05-03 22:10 | 39.15483 | -78.32406 | 15231 ft | 388 kts | 108° |
| 2026-05-03 22:10 | 39.14619 | -78.29125 | 14999 ft | 385 kts | 108° |
| 2026-05-03 22:10 | 39.13765 | -78.25872 | 14794 ft | 382 kts | 108° |
| 2026-05-03 22:11 | 39.12939 | -78.22632 | 14598 ft | 379 kts | 107° |
| 2026-05-03 22:11 | 39.12132 | -78.19407 | 14355 ft | 378 kts | 107° |
| 2026-05-03 22:11 | 39.11335 | -78.16199 | 14124 ft | 376 kts | 107° |
| 2026-05-03 22:11 | 39.10554 | -78.13055 | 14029 ft | 366 kts | 107° |
| 2026-05-03 22:12 | 39.09766 | -78.09903 | 13998 ft | 370 kts | 107° |
| 2026-05-03 22:12 | 39.08980 | -78.06808 | 13663 ft | 364 kts | 107° |
| 2026-05-03 22:12 | 39.08194 | -78.03730 | 13108 ft | 363 kts | 107° |
| 2026-05-03 22:12 | 39.07407 | -78.00647 | 12767 ft | 357 kts | 107° |
| 2026-05-03 22:13 | 39.06645 | -77.97668 | 12394 ft | 351 kts | 107° |
| 2026-05-03 22:13 | 39.05888 | -77.94707 | 12126 ft | 342 kts | 107° |
| 2026-05-03 22:13 | 39.05162 | -77.91873 | 12033 ft | 327 kts | 107° |
| 2026-05-03 22:13 | 39.04474 | -77.89190 | 11996 ft | 310 kts | 107° |
| 2026-05-03 22:14 | 39.03820 | -77.86642 | 11998 ft | 293 kts | 107° |
| 2026-05-03 22:14 | 39.03175 | -77.84124 | 11983 ft | 315 kts | 107° |
| 2026-05-03 22:14 | 39.02474 | -77.81393 | 11976 ft | 319 kts | 107° |
| 2026-05-03 22:14 | 39.01774 | -77.78674 | 11546 ft | 318 kts | 107° |
| 2026-05-03 22:15 | 39.01088 | -77.76013 | 11102 ft | 317 kts | 107° |
| 2026-05-03 22:15 | 39.00395 | -77.73331 | 10692 ft | 313 kts | 107° |
| 2026-05-03 22:15 | 38.99714 | -77.70690 | 10318 ft | 316 kts | 107° |
| 2026-05-03 22:15 | 38.99017 | -77.67994 | 10079 ft | 315 kts | 107° |
| 2026-05-03 22:16 | 38.98319 | -77.65370 | 10009 ft | 307 kts | 110° |
| 2026-05-03 22:16 | 38.97488 | -77.62886 | 9929 ft | 304 kts | 114° |
| 2026-05-03 22:16 | 38.96610 | -77.60420 | 9649 ft | 301 kts | 114° |
| 2026-05-03 22:16 | 38.95746 | -77.57991 | 9232 ft | 300 kts | 114° |
| 2026-05-03 22:17 | 38.94879 | -77.55536 | 8835 ft | 299 kts | 113° |
| 2026-05-03 22:17 | 38.94025 | -77.53127 | 8458 ft | 309 kts | 113° |
| 2026-05-03 22:17 | 38.93124 | -77.50544 | 8154 ft | 325 kts | 114° |
| 2026-05-03 22:17 | 38.92184 | -77.47880 | 8037 ft | 329 kts | 113° |
| 2026-05-03 22:18 | 38.91251 | -77.45234 | 8001 ft | 319 kts | 114° |
| 2026-05-03 22:18 | 38.90247 | -77.42744 | 7710 ft | 315 kts | 118° |
| 2026-05-03 22:18 | 38.89159 | -77.40299 | 7219 ft | 315 kts | 119° |
| 2026-05-03 22:18 | 38.88075 | -77.37860 | 6835 ft | 311 kts | 119° |
| 2026-05-03 22:19 | 38.87020 | -77.35457 | 6459 ft | 306 kts | 119° |
| 2026-05-03 22:19 | 38.85998 | -77.33131 | 6153 ft | 301 kts | 120° |
| 2026-05-03 22:19 | 38.84949 | -77.30771 | 6043 ft | 306 kts | 120° |
| 2026-05-03 22:19 | 38.83907 | -77.28452 | 6011 ft | 293 kts | 120° |
| 2026-05-03 22:20 | 38.82876 | -77.26170 | 6009 ft | 292 kts | 120° |
| 2026-05-03 22:20 | 38.81869 | -77.23939 | 6008 ft | 291 kts | 120° |
| 2026-05-03 22:20 | 38.80863 | -77.21704 | 6008 ft | 290 kts | 120° |
| 2026-05-03 22:20 | 38.79847 | -77.19451 | 6009 ft | 291 kts | 120° |
| 2026-05-03 22:21 | 38.78827 | -77.17186 | 6009 ft | 290 kts | 120° |
| 2026-05-03 22:21 | 38.77816 | -77.14946 | 6010 ft | 292 kts | 120° |
| 2026-05-03 22:21 | 38.76646 | -77.12819 | 6004 ft | 289 kts | 139° |
| 2026-05-03 22:21 | 38.74896 | -77.11593 | 6008 ft | 285 kts | 168° |
| 2026-05-03 22:22 | 38.72936 | -77.11214 | 5905 ft | 286 kts | 179° |
| 2026-05-03 22:22 | 38.70974 | -77.11066 | 5714 ft | 280 kts | 180° |
| 2026-05-03 22:22 | 38.69039 | -77.10963 | 5425 ft | 279 kts | 181° |
| 2026-05-03 22:22 | 38.67113 | -77.10863 | 5171 ft | 277 kts | 180° |
| 2026-05-03 22:23 | 38.65190 | -77.10758 | 5047 ft | 270 kts | 180° |
| 2026-05-03 22:23 | 38.63336 | -77.10656 | 5019 ft | 268 kts | 180° |
| 2026-05-03 22:23 | 38.61454 | -77.10461 | 4936 ft | 271 kts | 168° |
| 2026-05-03 22:23 | 38.59791 | -77.09331 | 4647 ft | 276 kts | 136° |
| 2026-05-03 22:24 | 38.58808 | -77.07255 | 4369 ft | 274 kts | 104° |
| 2026-05-03 22:24 | 38.58760 | -77.04868 | 4080 ft | 270 kts | 79° |
| 2026-05-03 22:24 | 38.59005 | -77.02516 | 3834 ft | 270 kts | 83° |
| 2026-05-03 22:24 | 38.59112 | -77.00137 | 3637 ft | 268 kts | 86° |
| 2026-05-03 22:25 | 38.59126 | -76.97739 | 3362 ft | 267 kts | 88° |
| 2026-05-03 22:25 | 38.59119 | -76.95393 | 3144 ft | 267 kts | 89° |
| 2026-05-03 22:25 | 38.59103 | -76.93005 | 2986 ft | 266 kts | 89° |
| 2026-05-03 22:25 | 38.59184 | -76.90684 | 2740 ft | 259 kts | 74° |
| 2026-05-03 22:26 | 38.60028 | -76.88786 | 2549 ft | 239 kts | 38° |
| 2026-05-03 22:26 | 38.61414 | -76.87820 | 2356 ft | 223 kts | 16° |
| 2026-05-03 22:26 | 38.62905 | -76.87362 | 1727 ft | 222 kts | 5° |
| 2026-05-03 22:26 | 38.64494 | -76.87166 | 1544 ft | 219 kts | 0° |
| 2026-05-03 22:27 | 38.65888 | -76.87086 | 1845 ft | 185 kts | 358° |
| 2026-05-03 22:27 | 38.67066 | -76.87055 | 1958 ft | 155 kts | 356° |
| 2026-05-03 22:27 | 38.68056 | -76.87044 | 1987 ft | 139 kts | 356° |
| 2026-05-03 22:27 | 38.69010 | -76.87031 | 1984 ft | 131 kts | 355° |
| 2026-05-03 22:28 | 38.69929 | -76.87032 | 1944 ft | 133 kts | 355° |
| 2026-05-03 22:28 | 38.70841 | -76.87032 | 1760 ft | 129 kts | 354° |
| 2026-05-03 22:28 | 38.71743 | -76.87043 | 1603 ft | 127 kts | 355° |
| 2026-05-03 22:28 | 38.72639 | -76.87033 | 1517 ft | 129 kts | 355° |
| 2026-05-03 22:29 | 38.73545 | -76.87034 | 1324 ft | 130 kts | 355° |
| 2026-05-03 22:29 | 38.74453 | -76.87035 | 1211 ft | 130 kts | 354° |
| 2026-05-03 22:29 | 38.75352 | -76.87030 | 1126 ft | 132 kts | 354° |
| 2026-05-03 22:29 | 38.76285 | -76.87038 | 939 ft | 136 kts | 354° |
| 2026-05-03 22:30 | 38.77197 | -76.87043 | 761 ft | 129 kts | 354° |
| 2026-05-03 22:30 | 38.78100 | -76.87051 | 566 ft | 127 kts | 355° |
| 2026-05-03 22:30 | 38.78986 | -76.87056 | 455 ft | 128 kts | 353° |
| 2026-05-03 22:30 | 38.79874 | -76.87059 | 289 ft | 127 kts | 353° |
| 2026-05-03 22:31 | 38.80731 | -76.87058 | 264 ft | 113 kts | 356° |
| 2026-05-03 22:31 | 38.81434 | -76.87064 | 266 ft | 87 kts | 0° |
| 2026-05-03 22:31 | 38.81900 | -76.87065 | 272 ft | 48 kts | 360° |
| 2026-05-03 22:31 | 38.82091 | -76.87066 | 274 ft | 21 kts | 359° |
| 2026-05-03 22:32 | 38.82243 | -76.87065 | 272 ft | 22 kts | 359° |
| 2026-05-03 22:32 | 38.82304 | -76.87086 | 271 ft | 7 kts | 306° |
| 2026-05-03 22:32 | 38.82310 | -76.87152 | 269 ft | 11 kts | 269° |
| 2026-05-03 22:32 | 38.82309 | -76.87269 | 269 ft | 13 kts | 269° |
| 2026-05-03 22:33 | 38.82304 | -76.87388 | 269 ft | 12 kts | 253° |
| 2026-05-03 22:33 | 38.82244 | -76.87448 | 270 ft | 9 kts | 184° |
| 2026-05-03 22:33 | 38.82182 | -76.87448 | 270 ft | 10 kts | 180° |
| 2026-05-03 22:33 | 38.82111 | -76.87449 | 270 ft | 9 kts | 180° |
| 2026-05-03 22:34 | 38.82052 | -76.87449 | 271 ft | 8 kts | 180° |
| 2026-05-03 22:34 | 38.81977 | -76.87448 | 272 ft | 13 kts | 179° |
| 2026-05-03 22:34 | 38.81864 | -76.87447 | 270 ft | 19 kts | 180° |
| 2026-05-03 22:34 | 38.81719 | -76.87447 | 269 ft | 20 kts | 180° |
| 2026-05-03 22:35 | 38.81580 | -76.87447 | 269 ft | 18 kts | 180° |
| 2026-05-03 22:35 | 38.81455 | -76.87447 | 268 ft | 17 kts | 179° |
| 2026-05-03 22:35 | 38.81318 | -76.87446 | 268 ft | 20 kts | 179° |
| 2026-05-03 22:35 | 38.81180 | -76.87445 | 267 ft | 18 kts | 179° |
| 2026-05-03 22:36 | 38.81056 | -76.87445 | 268 ft | 17 kts | 180° |
| 2026-05-03 22:36 | 38.80944 | -76.87444 | 268 ft | 15 kts | 179° |
| 2026-05-03 22:36 | 38.80847 | -76.87444 | 267 ft | 13 kts | 180° |
| 2026-05-03 22:36 | 38.80763 | -76.87444 | 267 ft | 10 kts | 180° |
| 2026-05-03 22:37 | 38.80695 | -76.87445 | 267 ft | 8 kts | 180° |
| 2026-05-03 22:37 | 38.80639 | -76.87446 | 268 ft | 6 kts | 181° |
| 2026-05-03 22:37 | 38.80620 | -76.87453 | 268 ft | 1 kts | 228° |
| 2026-05-03 22:37 | 38.80617 | -76.87481 | 268 ft | 6 kts | 270° |
| 2026-05-03 22:38 | 38.80617 | -76.87571 | 270 ft | 10 kts | 270° |
| 2026-05-03 22:38 | 38.80617 | -76.87648 | 271 ft | 6 kts | 270° |
| 2026-05-03 22:38 | 38.80620 | -76.87710 | 272 ft | 5 kts | 306° |
| 2026-05-03 22:38 | 38.80645 | -76.87718 | 272 ft | 3 kts | 358° |
| 2026-05-03 22:39 | 38.80676 | -76.87719 | 272 ft | 0 kts | 359° |